Time;durP1;ratioP1;P1;durP2;ratioP2;P2;SDS_P1;SDS_P2;PMS_P1;PMS_P2;Temp;Humidity;BMP_temperature;BMP_pressure;BME280_temperature;BME280_humidity;BME280_pressure;Samples;Min_cycle;Max_cycle;Signal;HPM_P1;HPM_P2
2021/09/05 00:02:21;;;;;;;6.05;3.72;;;19.90;71.60;;;;;;5154380;27;20390;-50
2021/09/05 00:04:47;;;;;;;5.03;3.33;;;19.90;71.60;;;;;;5154805;27;20043;-44
2021/09/05 00:07:12;;;;;;;7.65;3.50;;;19.90;71.70;;;;;;5153104;27;20087;-49
2021/09/05 00:09:38;;;;;;;7.60;3.63;;;19.90;71.70;;;;;;5155549;27;20031;-51
2021/09/05 00:12:04;;;;;;;7.03;3.50;;;19.90;71.70;;;;;;5154793;27;20042;-44
2021/09/05 00:14:30;;;;;;;5.22;3.30;;;19.90;71.70;;;;;;5155668;27;20093;-47
2021/09/05 00:16:56;;;;;;;7.07;3.72;;;19.90;71.70;;;;;;5155962;27;20034;-49
2021/09/05 00:19:22;;;;;;;5.97;3.28;;;19.90;71.70;;;;;;5154297;27;20451;-45
2021/09/05 00:21:47;;;;;;;5.57;3.30;;;19.80;71.60;;;;;;5155262;27;20050;-51
2021/09/05 00:24:13;;;;;;;5.38;3.20;;;19.90;71.70;;;;;;5154681;27;20466;-49
2021/09/05 00:26:39;;;;;;;6.72;3.55;;;19.90;71.70;;;;;;5154992;27;20035;-45
2021/09/05 00:29:04;;;;;;;4.25;3.00;;;19.90;71.70;;;;;;5154807;27;20035;-48
2021/09/05 00:31:30;;;;;;;7.72;3.55;;;19.90;71.70;;;;;;5154200;27;20122;-53
2021/09/05 00:34:00;;;;;;;6.63;3.30;;;19.90;71.70;;;;;;5153834;27;20034;-53
2021/09/05 00:36:26;;;;;;;4.43;3.10;;;19.90;71.70;;;;;;5153986;27;20550;-53
2021/09/05 00:38:52;;;;;;;6.55;3.42;;;19.90;71.70;;;;;;5154946;27;20042;-50
2021/09/05 00:41:18;;;;;;;6.97;3.42;;;19.90;71.70;;;;;;5154433;27;20039;-53
2021/09/05 00:43:54;;;;;;;6.18;3.53;;;19.90;71.80;;;;;;5154476;27;20035;-50
2021/09/05 00:46:20;;;;;;;5.40;3.33;;;19.90;71.70;;;;;;5152685;27;20056;-53
2021/09/05 00:48:46;;;;;;;5.68;3.55;;;19.90;71.80;;;;;;5154093;27;20483;-52
2021/09/05 00:51:12;;;;;;;4.55;3.00;;;19.80;71.70;;;;;;5153615;27;20039;-52
2021/09/05 00:53:38;;;;;;;5.18;3.50;;;19.90;71.80;;;;;;5154672;27;20045;-51
2021/09/05 00:56:04;;;;;;;4.20;3.50;;;19.90;71.80;;;;;;5153590;27;20079;-49
2021/09/05 00:58:30;;;;;;;5.03;3.13;;;19.90;71.80;;;;;;5154062;27;20026;-53
2021/09/05 01:00:58;;;;;;;4.53;3.10;;;19.90;71.80;;;;;;5154254;27;20043;-53
2021/09/05 01:03:23;;;;;;;6.50;3.22;;;19.90;71.80;;;;;;5152690;27;20356;-53
2021/09/05 01:05:49;;;;;;;4.63;3.25;;;19.80;71.80;;;;;;5153079;27;20050;-53
2021/09/05 01:08:15;;;;;;;4.47;3.10;;;19.80;71.80;;;;;;5153867;27;20054;-53
2021/09/05 01:10:40;;;;;;;7.75;3.40;;;19.80;71.80;;;;;;5153882;27;20038;-48
2021/09/05 01:13:06;;;;;;;4.80;2.90;;;19.80;71.80;;;;;;5153973;27;20486;-53
2021/09/05 01:15:32;;;;;;;4.70;3.28;;;19.80;71.80;;;;;;5153796;27;20134;-48
2021/09/05 01:17:58;;;;;;;7.00;3.70;;;19.80;71.80;;;;;;5153466;27;20047;-51
2021/09/05 01:20:23;;;;;;;6.13;3.20;;;19.80;71.80;;;;;;5153501;27;20482;-53
2021/09/05 01:22:49;;;;;;;5.05;3.10;;;19.80;71.90;;;;;;5153199;27;20041;-54
2021/09/05 01:25:15;;;;;;;5.75;3.40;;;19.80;71.80;;;;;;5153813;27;20074;-54
2021/09/05 01:27:40;;;;;;;12.85;4.30;;;19.80;71.90;;;;;;5153521;27;20455;-51
2021/09/05 01:30:07;;;;;;;10.73;4.25;;;19.80;72.50;;;;;;5135020;27;20051;-47
2021/09/05 01:32:33;;;;;;;11.95;3.78;;;19.80;71.90;;;;;;5152282;27;20479;-50
2021/09/05 01:34:58;;;;;;;7.43;3.83;;;19.80;71.80;;;;;;5153917;27;20039;-54
2021/09/05 01:37:24;;;;;;;7.22;3.78;;;19.80;72.50;;;;;;5152542;27;20050;-50
2021/09/05 01:39:50;;;;;;;10.35;3.70;;;19.80;71.90;;;;;;5135129;27;20058;-53
2021/09/05 01:42:15;;;;;;;8.75;3.50;;;19.80;71.90;;;;;;5153638;27;20088;-50
2021/09/05 01:44:41;;;;;;;6.03;3.40;;;19.80;71.90;;;;;;5135169;27;20046;-48
2021/09/05 01:47:07;;;;;;;6.75;3.30;;;19.90;72.00;;;;;;5153291;27;20042;-49
2021/09/05 01:49:32;;;;;;;8.25;3.92;;;19.90;72.00;;;;;;5153523;27;20031;-48
2021/09/05 01:51:58;;;;;;;8.60;3.50;;;19.80;71.90;;;;;;5153525;27;20043;-53
2021/09/05 01:54:23;;;;;;;6.32;3.33;;;19.80;71.90;;;;;;5152935;27;20095;-49
2021/09/05 01:56:49;;;;;;;4.90;3.10;;;19.80;71.90;;;;;;5153217;27;20031;-51
2021/09/05 01:59:15;;;;;;;7.57;3.50;;;19.80;71.90;;;;;;5152957;27;20049;-49
2021/09/05 02:01:40;;;;;;;5.47;3.08;;;19.80;71.90;;;;;;5153247;27;20391;-48
2021/09/05 02:04:06;;;;;;;5.88;3.20;;;19.80;71.90;;;;;;5152896;27;20047;-46
2021/09/05 02:06:32;;;;;;;7.03;3.55;;;19.80;71.90;;;;;;5152686;27;20091;-46
2021/09/05 02:08:58;;;;;;;6.65;3.95;;;19.80;71.90;;;;;;5152865;27;20039;-53
2021/09/05 02:11:24;;;;;;;6.95;3.47;;;19.80;71.90;;;;;;5153372;27;20435;-46
2021/09/05 02:13:51;;;;;;;6.13;3.00;;;19.80;71.90;;;;;;5152717;27;20531;-49
2021/09/05 02:16:17;;;;;;;6.05;3.70;;;19.80;71.90;;;;;;5153064;27;20079;-46
2021/09/05 02:18:44;;;;;;;5.32;3.50;;;19.80;72.00;;;;;;5152423;27;20498;-50
2021/09/05 02:21:10;;;;;;;4.47;3.08;;;19.80;71.90;;;;;;5152725;27;20038;-44
2021/09/05 02:23:36;;;;;;;4.78;3.25;;;19.80;71.90;;;;;;5153129;27;20117;-46
2021/09/05 02:26:02;;;;;;;5.68;3.30;;;19.80;72.00;;;;;;5151999;27;20126;-49
2021/09/05 02:28:27;;;;;;;5.25;3.25;;;19.80;72.00;;;;;;5152550;27;20201;-46
2021/09/05 02:30:53;;;;;;;6.25;3.53;;;19.80;72.00;;;;;;5149792;27;20038;-50
2021/09/05 02:33:19;;;;;;;5.43;3.55;;;19.60;71.90;;;;;;5152826;27;20031;-44
2021/09/05 02:35:44;;;;;;;5.53;3.30;;;19.80;72.00;;;;;;5152488;27;20066;-47
2021/09/05 02:38:11;;;;;;;6.07;3.22;;;19.80;72.00;;;;;;5152242;27;20039;-43
2021/09/05 02:40:36;;;;;;;4.50;2.85;;;19.80;72.00;;;;;;5152181;27;20031;-43
2021/09/05 02:43:02;;;;;;;5.53;2.88;;;19.70;71.90;;;;;;5152792;27;20042;-40
2021/09/05 02:45:28;;;;;;;4.35;2.90;;;19.70;71.90;;;;;;5152976;27;20043;-49
2021/09/05 02:47:53;;;;;;;6.70;3.80;;;19.80;72.00;;;;;;5150165;27;20110;-48
2021/09/05 02:50:19;;;;;;;5.40;3.63;;;19.70;71.90;;;;;;5152456;27;20454;-38
2021/09/05 02:52:45;;;;;;;4.25;3.03;;;19.70;72.00;;;;;;5133814;27;20467;-42
2021/09/05 02:55:10;;;;;;;4.72;3.42;;;19.80;72.00;;;;;;5150496;27;20046;-46
2021/09/05 02:57:36;;;;;;;4.97;3.15;;;19.80;72.00;;;;;;5152118;27;20428;-48
2021/09/05 03:00:03;;;;;;;4.43;3.10;;;19.70;72.00;;;;;;5152415;27;20129;-46
2021/09/05 03:02:29;;;;;;;4.40;3.33;;;19.70;72.00;;;;;;5152046;27;20035;-48
2021/09/05 03:04:55;;;;;;;4.68;3.08;;;19.70;72.00;;;;;;5152402;27;20047;-48
2021/09/05 03:07:20;;;;;;;4.78;3.67;;;19.70;72.00;;;;;;5151910;27;20144;-49
2021/09/05 03:09:46;;;;;;;4.38;3.00;;;19.70;72.00;;;;;;5152516;27;20398;-49
2021/09/05 03:12:12;;;;;;;5.07;3.40;;;19.70;72.00;;;;;;5151032;27;20693;-53
2021/09/05 03:14:37;;;;;;;5.80;3.45;;;19.70;72.00;;;;;;5152518;27;20109;-50
2021/09/05 03:17:03;;;;;;;5.72;3.40;;;19.70;72.00;;;;;;5152264;27;20049;-53
2021/09/05 03:19:29;;;;;;;5.60;3.05;;;19.70;72.00;;;;;;5151966;27;20129;-54
2021/09/05 03:21:54;;;;;;;4.45;3.33;;;19.70;72.10;;;;;;5151958;27;20054;-49
2021/09/05 03:24:20;;;;;;;4.50;3.40;;;19.70;72.10;;;;;;5133717;27;20077;-54
2021/09/05 03:26:46;;;;;;;4.13;3.05;;;19.70;72.10;;;;;;5153597;27;20038;-53
2021/09/05 03:29:11;;;;;;;4.93;3.13;;;19.70;72.10;;;;;;5155735;27;20038;-50
2021/09/05 03:31:37;;;;;;;5.35;3.65;;;19.70;72.10;;;;;;5156317;27;20424;-53
2021/09/05 03:34:03;;;;;;;5.35;3.85;;;19.70;72.10;;;;;;5156030;27;20516;-53
2021/09/05 03:36:28;;;;;;;4.43;3.10;;;19.70;72.10;;;;;;5155716;27;20127;-53
2021/09/05 03:38:54;;;;;;;4.20;3.20;;;19.70;72.10;;;;;;5155907;27;20482;-53
2021/09/05 03:41:20;;;;;;;4.75;3.25;;;19.70;72.10;;;;;;5156249;27;20038;-54
2021/09/05 03:43:46;;;;;;;6.60;3.60;;;19.70;72.10;;;;;;5154675;27;20367;-53
2021/09/05 03:46:11;;;;;;;6.25;3.38;;;19.70;72.10;;;;;;5155394;27;20042;-44
2021/09/05 03:48:37;;;;;;;6.03;3.08;;;19.70;72.10;;;;;;5156168;27;20244;-54
2021/09/05 03:51:03;;;;;;;4.85;3.45;;;19.70;72.10;;;;;;5155727;27;20042;-53
2021/09/05 03:53:28;;;;;;;6.65;3.22;;;19.70;72.10;;;;;;5155252;27;20414;-46
2021/09/05 03:55:54;;;;;;;4.70;3.30;;;19.70;72.10;;;;;;5155123;27;20038;-53
2021/09/05 03:58:20;;;;;;;6.05;3.40;;;19.70;72.10;;;;;;5156103;27;20083;-53
2021/09/05 04:00:45;;;;;;;4.80;3.35;;;19.70;72.10;;;;;;5155145;27;20043;-52
2021/09/05 04:03:11;;;;;;;7.18;3.30;;;19.70;72.10;;;;;;5155312;27;20049;-51
2021/09/05 04:05:37;;;;;;;5.15;3.28;;;19.70;72.10;;;;;;5155579;27;20039;-51
2021/09/05 04:10:29;;;;;;;5.90;3.35;;;19.60;72.10;;;;;;5155184;27;20142;-48
2021/09/05 04:12:57;;;;;;;4.55;3.50;;;19.60;72.20;;;;;;5136577;27;20045;-47
2021/09/05 04:15:23;;;;;;;4.70;3.33;;;19.60;72.20;;;;;;5155073;27;20555;-43
2021/09/05 04:17:49;;;;;;;4.28;2.97;;;19.70;72.20;;;;;;5154885;27;20058;-48
2021/09/05 04:20:15;;;;;;;5.30;3.63;;;19.60;72.10;;;;;;5155522;27;20043;-47
2021/09/05 04:22:40;;;;;;;4.60;3.40;;;19.60;72.10;;;;;;5154748;27;20026;-47
2021/09/05 04:25:06;;;;;;;5.05;3.88;;;19.60;72.10;;;;;;5154387;27;20042;-47
2021/09/05 04:27:32;;;;;;;4.15;3.08;;;19.70;72.20;;;;;;5154769;27;20040;-49
2021/09/05 04:29:58;;;;;;;4.43;3.42;;;19.60;72.20;;;;;;5154971;27;20038;-46
2021/09/05 04:32:24;;;;;;;4.03;3.03;;;19.60;72.20;;;;;;5154690;27;20080;-49
2021/09/05 04:34:50;;;;;;;5.57;3.30;;;19.60;72.10;;;;;;5154568;27;20038;-49
2021/09/05 04:37:17;;;;;;;3.92;3.28;;;19.60;72.20;;;;;;5154039;27;20062;-37
2021/09/05 04:39:43;;;;;;;5.43;3.20;;;19.60;72.20;;;;;;5154828;27;20063;-49
2021/09/05 04:42:10;;;;;;;5.13;3.50;;;19.60;72.20;;;;;;5153329;27;20121;-48
2021/09/05 04:44:36;;;;;;;4.95;3.70;;;19.60;72.20;;;;;;5153057;27;20162;-49
2021/09/05 04:47:03;;;;;;;5.07;3.28;;;19.60;72.20;;;;;;5153098;27;20078;-49
2021/09/05 04:49:28;;;;;;;5.38;3.80;;;19.60;72.20;;;;;;5153690;27;20045;-44
2021/09/05 04:51:54;;;;;;;4.55;3.83;;;19.60;72.20;;;;;;5151523;27;20126;-48
2021/09/05 04:54:20;;;;;;;4.50;3.33;;;19.60;72.20;;;;;;5154446;27;20038;-42
2021/09/05 04:56:46;;;;;;;4.70;3.50;;;19.60;72.20;;;;;;5152561;27;20129;-48
2021/09/05 04:59:12;;;;;;;4.72;3.53;;;19.60;72.20;;;;;;5154201;27;20125;-47
2021/09/05 05:01:37;;;;;;;5.75;3.40;;;19.60;72.20;;;;;;5154690;27;20175;-50
2021/09/05 05:04:03;;;;;;;4.38;3.63;;;19.60;72.20;;;;;;5153593;27;20475;-44
2021/09/05 05:06:29;;;;;;;5.35;3.40;;;19.60;72.20;;;;;;5153529;27;20050;-49
2021/09/05 05:08:54;;;;;;;4.80;3.55;;;19.60;72.20;;;;;;5153733;27;20154;-40
2021/09/05 05:11:20;;;;;;;5.30;3.88;;;19.60;72.20;;;;;;5154597;27;20489;-43
2021/09/05 05:13:46;;;;;;;5.57;4.05;;;19.60;72.20;;;;;;5155001;27;20039;-44
2021/09/05 05:16:12;;;;;;;4.78;3.38;;;19.60;72.20;;;;;;5154102;27;20470;-42
2021/09/05 05:18:37;;;;;;;5.22;4.05;;;19.60;72.20;;;;;;5152999;27;20047;-38
2021/09/05 05:21:03;;;;;;;4.68;3.45;;;19.60;72.20;;;;;;5153651;27;20126;-45
2021/09/05 05:23:29;;;;;;;4.65;3.72;;;19.60;72.20;;;;;;5153682;27;20117;-48
2021/09/05 05:25:58;;;;;;;4.75;3.50;;;19.60;72.20;;;;;;5135051;27;20046;-49
2021/09/05 05:28:24;;;;;;;4.85;3.60;;;19.60;72.20;;;;;;5153347;27;20035;-49
2021/09/05 05:30:49;;;;;;;6.10;4.10;;;19.60;72.20;;;;;;5152972;27;20035;-53
2021/09/05 05:33:15;;;;;;;5.20;3.78;;;19.60;72.20;;;;;;5154004;27;20046;-44
2021/09/05 05:35:41;;;;;;;4.35;3.13;;;19.60;72.20;;;;;;5134229;27;20050;-49
2021/09/05 05:38:07;;;;;;;5.07;3.90;;;19.60;72.20;;;;;;5153884;27;20100;-52
2021/09/05 05:40:33;;;;;;;5.30;4.03;;;19.60;72.20;;;;;;5153925;27;20088;-53
2021/09/05 05:43:02;;;;;;;5.40;4.07;;;19.60;72.20;;;;;;5153469;27;20130;-53
2021/09/05 05:45:28;;;;;;;5.53;4.13;;;19.60;72.20;;;;;;5153678;27;20126;-53
2021/09/05 05:47:54;;;;;;;4.70;3.88;;;19.60;72.20;;;;;;5153861;27;20035;-49
2021/09/05 05:50:20;;;;;;;5.05;3.55;;;19.60;72.20;;;;;;5152634;27;20114;-52
2021/09/05 05:52:46;;;;;;;4.53;3.72;;;19.60;72.20;;;;;;5153755;27;20478;-51
2021/09/05 05:55:12;;;;;;;5.10;4.00;;;19.60;72.30;;;;;;5154140;27;20478;-51
2021/09/05 05:57:38;;;;;;;4.70;3.63;;;19.60;72.30;;;;;;5153027;27;20046;-51
2021/09/05 06:00:06;;;;;;;5.10;4.10;;;19.60;72.20;;;;;;5153438;27;20046;-52
2021/09/05 06:02:31;;;;;;;5.30;3.90;;;19.60;72.30;;;;;;5153072;27;20106;-51
2021/09/05 06:04:57;;;;;;;4.68;3.50;;;19.60;72.30;;;;;;5153035;27;20038;-52
2021/09/05 06:07:24;;;;;;;4.40;3.90;;;19.50;72.20;;;;;;5134027;27;20073;-52
2021/09/05 06:09:50;;;;;;;4.75;3.40;;;19.50;72.20;;;;;;5153985;27;20432;-48
2021/09/05 06:12:15;;;;;;;5.38;4.15;;;19.50;72.20;;;;;;5153638;27;20042;-53
2021/09/05 06:14:41;;;;;;;4.55;3.58;;;19.60;72.30;;;;;;5152492;27;20042;-50
2021/09/05 06:17:07;;;;;;;5.28;3.72;;;19.50;72.20;;;;;;5153018;27;20521;-47
2021/09/05 06:19:32;;;;;;;5.95;3.60;;;19.50;72.90;;;;;;5134734;27;20043;-47
2021/09/05 06:21:58;;;;;;;5.82;4.40;;;19.50;72.20;;;;;;5133908;27;20784;-52
2021/09/05 06:24:23;;;;;;;4.65;3.72;;;19.50;72.20;;;;;;5152945;27;20042;-44
2021/09/05 06:26:49;;;;;;;4.75;3.60;;;19.50;72.20;;;;;;5153423;27;20121;-50
2021/09/05 06:29:15;;;;;;;4.47;3.63;;;19.50;72.20;;;;;;5153269;27;20042;-50
2021/09/05 06:31:40;;;;;;;4.32;3.60;;;19.50;72.90;;;;;;5153337;27;20478;-47
2021/09/05 06:34:07;;;;;;;5.22;4.00;;;19.50;72.20;;;;;;5153481;27;20030;-47
2021/09/05 06:36:32;;;;;;;4.85;3.63;;;19.50;72.20;;;;;;5153323;27;20050;-38
2021/09/05 06:38:58;;;;;;;4.53;3.58;;;19.50;72.20;;;;;;5152948;27;20035;-43
2021/09/05 06:41:24;;;;;;;5.60;4.13;;;19.60;72.30;;;;;;5152569;27;20031;-48
2021/09/05 06:43:50;;;;;;;5.85;3.65;;;19.50;72.20;;;;;;5152398;27;20109;-50
2021/09/05 06:46:15;;;;;;;5.72;4.13;;;19.50;72.20;;;;;;5152937;27;20042;-49
2021/09/05 06:48:42;;;;;;;4.50;3.80;;;19.50;72.20;;;;;;5153528;27;20042;-52
2021/09/05 06:51:09;;;;;;;4.97;3.75;;;19.50;72.20;;;;;;5152986;27;20459;-49
2021/09/05 06:53:35;;;;;;;4.47;3.55;;;19.50;72.20;;;;;;5153083;27;20042;-49
2021/09/05 06:56:00;;;;;;;6.20;4.15;;;19.50;72.20;;;;;;5152314;27;20391;-48
2021/09/05 06:58:26;;;;;;;6.47;4.30;;;19.50;72.20;;;;;;5152502;27;20121;-43
2021/09/05 07:00:52;;;;;;;6.03;4.22;;;19.50;72.20;;;;;;5154755;27;20041;-45
2021/09/05 07:03:18;;;;;;;5.10;4.00;;;19.50;72.20;;;;;;5157078;27;20497;-46
2021/09/05 07:05:44;;;;;;;5.25;3.92;;;19.50;72.20;;;;;;5156879;27;20039;-50
2021/09/05 07:08:09;;;;;;;4.95;3.90;;;19.50;72.20;;;;;;5156445;27;20034;-44
2021/09/05 07:10:36;;;;;;;5.80;3.83;;;19.50;72.20;;;;;;5156490;27;20142;-45
2021/09/05 07:13:02;;;;;;;4.88;3.65;;;19.50;72.20;;;;;;5156475;27;20039;-40
2021/09/05 07:15:28;;;;;;;5.93;4.07;;;19.50;72.20;;;;;;5156700;27;20062;-49
2021/09/05 07:17:53;;;;;;;4.35;3.50;;;19.60;72.20;;;;;;5156415;27;20494;-39
2021/09/05 07:20:19;;;;;;;4.80;3.70;;;19.50;72.20;;;;;;5156436;27;20054;-43
2021/09/05 07:22:45;;;;;;;4.90;3.80;;;19.50;72.20;;;;;;5156482;27;20042;-49
2021/09/05 07:25:10;;;;;;;4.90;3.83;;;19.50;72.20;;;;;;5156351;27;20078;-45
2021/09/05 07:27:37;;;;;;;5.18;3.80;;;19.50;72.20;;;;;;5153479;27;20039;-47
2021/09/05 07:30:04;;;;;;;5.07;4.15;;;19.50;72.20;;;;;;5153681;27;20030;-44
2021/09/05 07:32:30;;;;;;;4.22;3.20;;;19.50;72.20;;;;;;5155982;27;20038;-53
2021/09/05 07:34:55;;;;;;;5.20;3.92;;;19.50;72.20;;;;;;5155743;27;20069;-48
2021/09/05 07:37:21;;;;;;;5.10;3.97;;;19.50;72.20;;;;;;5155366;27;20068;-40
2021/09/05 07:39:46;;;;;;;4.53;3.55;;;19.50;72.20;;;;;;5155246;27;20050;-47
2021/09/05 07:42:12;;;;;;;5.57;3.95;;;19.50;72.20;;;;;;5155764;27;20023;-48
2021/09/05 07:44:38;;;;;;;5.00;3.65;;;19.60;72.30;;;;;;5156068;27;20074;-50
2021/09/05 07:47:04;;;;;;;4.68;3.60;;;19.50;72.20;;;;;;5155686;27;20062;-42
2021/09/05 07:49:30;;;;;;;4.28;3.38;;;19.50;72.20;;;;;;5136914;27;20042;-53
2021/09/05 07:51:56;;;;;;;4.40;3.33;;;19.50;72.20;;;;;;5155687;27;20043;-45
2021/09/05 07:54:21;;;;;;;4.30;3.65;;;19.50;72.20;;;;;;5155717;27;20034;-51
2021/09/05 07:56:47;;;;;;;5.13;3.63;;;19.50;72.20;;;;;;5154713;27;20046;-46
2021/09/05 07:59:13;;;;;;;5.78;3.92;;;19.50;72.20;;;;;;5155421;27;20045;-47
2021/09/05 08:01:39;;;;;;;5.47;4.03;;;19.50;72.10;;;;;;5154482;27;20545;-47
2021/09/05 08:04:04;;;;;;;4.82;3.58;;;19.50;72.10;;;;;;5153748;27;20038;-43
2021/09/05 08:06:30;;;;;;;4.88;3.72;;;19.50;72.10;;;;;;5154960;27;20031;-46
2021/09/05 08:08:57;;;;;;;3.78;3.38;;;19.60;72.20;;;;;;5136358;27;20047;-47
2021/09/05 08:11:24;;;;;;;4.20;3.40;;;19.50;72.10;;;;;;5155044;27;20035;-52
2021/09/05 08:13:50;;;;;;;5.22;4.00;;;19.50;72.10;;;;;;5155029;27;20054;-53
2021/09/05 08:16:15;;;;;;;4.28;3.47;;;19.50;72.10;;;;;;5138611;27;20494;-52
2021/09/05 08:18:41;;;;;;;5.13;4.03;;;19.50;72.10;;;;;;5153760;27;20111;-47
2021/09/05 08:21:08;;;;;;;4.13;3.45;;;19.60;72.20;;;;;;5154541;27;20506;-53
2021/09/05 08:23:35;;;;;;;4.97;3.45;;;19.50;72.10;;;;;;5136327;27;20043;-53
2021/09/05 08:26:01;;;;;;;4.88;3.65;;;19.60;72.20;;;;;;5154471;27;20051;-53
2021/09/05 08:28:27;;;;;;;5.97;3.80;;;19.60;72.10;;;;;;5153695;27;20078;-52
2021/09/05 08:30:53;;;;;;;5.13;3.80;;;19.50;72.10;;;;;;5151443;27;20070;-53
2021/09/05 08:33:18;;;;;;;4.93;4.05;;;19.60;72.10;;;;;;5154707;27;20509;-52
2021/09/05 08:35:45;;;;;;;4.55;3.60;;;19.60;72.10;;;;;;5154469;27;20043;-49
2021/09/05 08:38:12;;;;;;;5.45;4.25;;;19.60;72.20;;;;;;5136624;27;20042;-51
2021/09/05 08:40:44;;;;;;;4.82;3.65;;;19.60;72.10;;;;;;5153259;27;20049;-44
2021/09/05 08:43:10;;;;;;;4.75;4.10;;;19.50;72.00;;;;;;5153195;27;20070;-50
2021/09/05 08:45:37;;;;;;;4.72;3.70;;;19.50;72.00;;;;;;5135237;27;20050;-39
2021/09/05 08:48:04;;;;;;;4.82;3.88;;;19.60;72.10;;;;;;5153727;27;20095;-48
2021/09/05 08:50:31;;;;;;;5.53;4.03;;;19.60;72.10;;;;;;5153993;27;20125;-46
2021/09/05 08:52:58;;;;;;;5.45;4.10;;;19.60;72.10;;;;;;5153830;27;20411;-45
2021/09/05 08:55:25;;;;;;;4.75;3.58;;;19.60;72.10;;;;;;5153975;27;20104;-49
2021/09/05 08:57:51;;;;;;;5.20;4.20;;;19.60;72.10;;;;;;5154172;27;20064;-46
2021/09/05 09:00:17;;;;;;;4.57;3.85;;;19.60;72.10;;;;;;5151866;27;20041;-44
2021/09/05 09:02:44;;;;;;;5.57;3.97;;;19.60;72.10;;;;;;5135480;27;20426;-42
2021/09/05 09:05:12;;;;;;;4.22;3.60;;;19.60;72.10;;;;;;5154228;27;20046;-45
2021/09/05 09:07:45;;;;;;;4.63;3.65;;;19.60;72.10;;;;;;5151305;27;20041;-44
2021/09/05 09:10:10;;;;;;;4.72;3.92;;;19.60;72.10;;;;;;5133418;27;20051;-50
2021/09/05 09:12:40;;;;;;;3.83;2.97;;;19.60;72.00;;;;;;5149372;27;20053;-48
2021/09/05 09:15:18;;;;;;;4.35;3.75;;;19.60;72.00;;;;;;5153102;27;20039;-47
2021/09/05 09:17:44;;;;;;;4.82;3.45;;;19.60;72.00;;;;;;5153328;27;20110;-48
2021/09/05 09:20:11;;;;;;;4.15;3.40;;;19.60;72.00;;;;;;5153587;27;20050;-44
2021/09/05 09:22:36;;;;;;;5.40;3.83;;;19.60;72.00;;;;;;5153557;27;20050;-44
2021/09/05 09:25:02;;;;;;;4.03;3.40;;;19.60;72.00;;;;;;5152220;27;20034;-48
2021/09/05 09:27:28;;;;;;;4.63;4.03;;;19.60;72.00;;;;;;5153340;27;20046;-48
2021/09/05 09:29:56;;;;;;;4.70;3.35;;;19.60;72.00;;;;;;5152869;27;20039;-45
2021/09/05 09:32:23;;;;;;;5.00;3.35;;;19.60;72.00;;;;;;5153310;27;20409;-42
2021/09/05 09:34:50;;;;;;;4.78;3.60;;;19.60;72.00;;;;;;5135084;27;20122;-43
2021/09/05 09:37:23;;;;;;;4.60;3.85;;;19.70;72.10;;;;;;5153573;27;20070;-47
2021/09/05 09:39:54;;;;;;;4.60;3.60;;;19.60;72.00;;;;;;5153317;27;20046;-44
2021/09/05 09:42:39;;;;;;;4.28;3.63;;;19.70;72.00;;;;;;5134769;27;20039;-46
2021/09/05 09:45:08;;;;;;;4.43;3.22;;;19.70;72.00;;;;;;5152958;27;20118;-48
2021/09/05 09:47:47;;;;;;;5.13;3.42;;;19.70;72.20;;;;;;5152961;27;20042;-47
2021/09/05 09:50:15;;;;;;;5.45;3.70;;;19.70;72.00;;;;;;5142026;27;20063;-43
2021/09/05 09:52:43;;;;;;;4.10;3.15;;;19.70;71.90;;;;;;5152009;27;20519;-39
2021/09/05 09:55:09;;;;;;;5.03;3.42;;;19.70;71.90;;;;;;5153155;27;20453;-44
2021/09/05 09:57:35;;;;;;;3.95;3.10;;;19.70;71.90;;;;;;5130607;27;20069;-45
2021/09/05 10:00:01;;;;;;;4.45;3.60;;;19.70;71.90;;;;;;5147720;27;20034;-46
2021/09/05 10:02:27;;;;;;;3.50;3.13;;;19.70;71.90;;;;;;5153298;27;20043;-46
2021/09/05 10:04:54;;;;;;;4.25;3.33;;;19.80;71.90;;;;;;5153673;27;20039;-42
2021/09/05 10:07:24;;;;;;;4.38;3.55;;;19.80;72.00;;;;;;5151684;27;20046;-38
2021/09/05 10:09:51;;;;;;;3.80;3.30;;;19.80;71.90;;;;;;5152279;27;20477;-38
2021/09/05 10:12:18;;;;;;;5.03;3.47;;;19.80;71.90;;;;;;5149480;27;20463;-44
2021/09/05 10:14:51;;;;;;;4.05;3.65;;;19.80;71.80;;;;;;5153028;27;20045;-43
2021/09/05 10:17:19;;;;;;;4.57;3.55;;;19.80;71.80;;;;;;5141284;27;20039;-37
2021/09/05 10:19:45;;;;;;;4.30;3.40;;;19.80;71.80;;;;;;5138027;27;20055;-40
2021/09/05 10:22:11;;;;;;;4.18;3.35;;;19.80;71.80;;;;;;5148617;27;20133;-43
2021/09/05 10:24:47;;;;;;;3.78;3.20;;;19.90;71.80;;;;;;5152428;27;20106;-44
2021/09/05 10:27:14;;;;;;;4.18;3.13;;;19.90;71.70;;;;;;5152300;27;20046;-43
2021/09/05 10:30:09;;;;;;;4.18;3.08;;;19.90;71.70;;;;;;5152544;27;20106;-40
2021/09/05 10:32:49;;;;;;;4.43;3.30;;;19.90;71.60;;;;;;5152820;27;20035;-46
2021/09/05 10:35:35;;;;;;;4.53;3.03;;;19.90;71.60;;;;;;5152802;27;20454;-47
2021/09/05 10:38:20;;;;;;;3.95;3.20;;;19.90;71.60;;;;;;5157355;27;20038;-47
2021/09/05 10:40:52;;;;;;;5.15;3.38;;;19.90;71.60;;;;;;5153342;27;20050;-46
2021/09/05 10:43:18;;;;;;;4.10;3.22;;;19.90;71.50;;;;;;5157175;27;20113;-40
2021/09/05 10:45:47;;;;;;;3.85;3.25;;;19.90;71.50;;;;;;5138583;27;20061;-47
2021/09/05 10:48:31;;;;;;;3.58;3.05;;;20.00;71.60;;;;;;5157742;27;20035;-46
2021/09/05 10:51:09;;;;;;;4.07;3.10;;;20.00;71.50;;;;;;5138301;27;20054;-47
2021/09/05 10:53:47;;;;;;;4.30;3.20;;;19.90;71.40;;;;;;5156558;27;20432;-46
2021/09/05 10:56:16;;;;;;;4.50;3.42;;;20.00;71.50;;;;;;5157490;27;20126;-50
2021/09/05 10:58:57;;;;;;;4.10;3.28;;;20.00;71.40;;;;;;5138611;27;20396;-49
2021/09/05 11:01:41;;;;;;;4.15;3.40;;;20.00;71.40;;;;;;5157305;27;20122;-45
2021/09/05 11:04:14;;;;;;;4.47;3.33;;;20.00;71.30;;;;;;5156988;27;20532;-47
2021/09/05 11:07:02;;;;;;;4.18;3.30;;;20.00;71.30;;;;;;5156618;27;20493;-51
2021/09/05 11:09:28;;;;;;;3.65;2.80;;;20.00;71.30;;;;;;5157162;27;20042;-51
2021/09/05 11:12:11;;;;;;;3.80;3.00;;;20.00;71.30;;;;;;5157288;27;20043;-48
2021/09/05 11:14:37;;;;;;;3.88;3.20;;;20.00;71.20;;;;;;5156754;27;20042;-52
2021/09/05 11:17:08;;;;;;;3.72;2.72;;;20.10;71.30;;;;;;5156391;27;20062;-46
2021/09/05 11:19:43;;;;;;;3.72;3.30;;;20.10;71.20;;;;;;5156942;27;20150;-50
2021/09/05 11:22:10;;;;;;;3.70;3.15;;;20.10;71.20;;;;;;5156294;27;20053;-48
2021/09/05 11:24:37;;;;;;;3.35;3.00;;;20.10;71.20;;;;;;5156803;27;20105;-48
2021/09/05 11:27:08;;;;;;;3.72;3.00;;;20.10;71.20;;;;;;5157231;27;20478;-50
2021/09/05 11:29:34;;;;;;;4.07;3.08;;;20.10;71.20;;;;;;5156922;27;20046;-47
2021/09/05 11:32:07;;;;;;;13.73;10.20;;;20.10;71.10;;;;;;5156294;27;20444;-46
2021/09/05 11:34:34;;;;;;;18.15;13.05;;;20.10;71.30;;;;;;5156502;27;20045;-38
2021/09/05 11:37:00;;;;;;;15.98;11.65;;;20.10;71.30;;;;;;5155040;27;20043;-44
2021/09/05 11:39:26;;;;;;;21.23;12.13;;;20.10;71.40;;;;;;5156537;27;20039;-44
2021/09/05 11:41:56;;;;;;;16.05;11.80;;;20.10;71.40;;;;;;5151072;27;20049;-43
2021/09/05 11:44:28;;;;;;;22.52;12.85;;;20.10;71.40;;;;;;5152138;27;20495;-44
2021/09/05 11:47:11;;;;;;;16.60;11.93;;;20.10;71.40;;;;;;5151201;27;20043;-43
2021/09/05 11:49:48;;;;;;;16.38;10.57;;;20.00;71.10;;;;;;5152226;27;20046;-45
2021/09/05 11:52:27;;;;;;;15.85;11.45;;;19.90;71.30;;;;;;5133212;27;20039;-46
2021/09/05 11:55:11;;;;;;;17.42;12.40;;;20.00;71.30;;;;;;5133911;27;20061;-41
2021/09/05 11:57:50;;;;;;;15.10;11.98;;;19.90;71.20;;;;;;5150083;27;20114;-47
2021/09/05 12:00:28;;;;;;;25.65;12.02;;;19.90;71.80;;;;;;5153357;27;20042;-51
2021/09/05 12:02:54;;;;;;;17.55;11.35;;;19.80;72.10;;;;;;5153552;27;20080;-54
2021/09/05 12:05:20;;;;;;;15.55;10.07;;;19.70;72.10;;;;;;5152732;27;20051;-54
2021/09/05 12:07:46;;;;;;;16.70;11.02;;;19.70;72.60;;;;;;5152865;27;20042;-50
2021/09/05 12:10:15;;;;;;;18.48;10.70;;;19.70;73.30;;;;;;5150351;27;20071;-51
2021/09/05 12:12:42;;;;;;;16.10;10.18;;;19.60;73.90;;;;;;5149831;27;20087;-53
2021/09/05 12:15:18;;;;;;;12.52;9.93;;;19.70;74.50;;;;;;5152069;27;20042;-52
2021/09/05 12:17:50;;;;;;;15.88;10.32;;;19.70;74.80;;;;;;5151281;27;20764;-49
2021/09/05 12:20:17;;;;;;;17.08;9.80;;;19.70;75.20;;;;;;5150273;27;20061;-52
2021/09/05 12:22:45;;;;;;;13.52;9.65;;;19.70;75.40;;;;;;5151814;27;20067;-51
2021/09/05 12:25:13;;;;;;;12.80;9.68;;;19.70;75.60;;;;;;5131702;27;20451;-52
2021/09/05 12:27:39;;;;;;;13.15;9.35;;;19.70;75.80;;;;;;5151576;27;20095;-54
2021/09/05 12:30:22;;;;;;;11.40;8.73;;;19.70;75.90;;;;;;5149940;27;20623;-53
2021/09/05 12:33:09;;;;;;;10.32;8.55;;;19.70;75.80;;;;;;5150052;27;20054;-48
2021/09/05 12:35:36;;;;;;;10.15;8.75;;;19.70;75.90;;;;;;5152301;27;20049;-52
2021/09/05 12:38:08;;;;;;;11.57;9.10;;;19.70;76.20;;;;;;5152348;27;20053;-54
2021/09/05 12:40:44;;;;;;;10.60;7.95;;;19.70;76.20;;;;;;5150638;27;20083;-48
2021/09/05 12:43:11;;;;;;;10.63;7.78;;;19.70;76.20;;;;;;5151301;27;20050;-50
2021/09/05 12:45:38;;;;;;;10.10;8.20;;;19.70;76.30;;;;;;5151623;27;20100;-53
2021/09/05 12:48:14;;;;;;;9.57;8.05;;;19.70;76.40;;;;;;5150913;27;20455;-49
2021/09/05 12:50:41;;;;;;;11.90;7.65;;;19.70;76.30;;;;;;5151709;27;20045;-49